Time;durP1;ratioP1;P1;durP2;ratioP2;P2;SDS_P1;SDS_P2;PMS_P1;PMS_P2;Temp;Humidity;BMP_temperature;BMP_pressure;BME280_temperature;BME280_humidity;BME280_pressure;Samples;Min_cycle;Max_cycle;Signal;HPM_P1;HPM_P2
2023/09/06 00:00:33;;;;;;;2.58;1.33;;;22.90;50.30;;;;;;5000274;28;20498;-55
2023/09/06 00:03:01;;;;;;;2.42;1.42;;;22.90;50.40;;;;;;5000577;28;20050;-55
2023/09/06 00:05:29;;;;;;;2.15;1.50;;;22.90;50.40;;;;;;4999932;28;20425;-55
2023/09/06 00:07:57;;;;;;;3.53;1.40;;;22.90;50.40;;;;;;5001053;28;20061;-55
2023/09/06 00:10:24;;;;;;;2.35;1.45;;;22.90;50.40;;;;;;5001015;28;20049;-55
2023/09/06 00:12:51;;;;;;;1.83;1.48;;;22.90;50.40;;;;;;5000897;28;20049;-55
2023/09/06 00:15:20;;;;;;;2.67;1.70;;;22.80;50.30;;;;;;5000910;28;20050;-55
2023/09/06 00:17:47;;;;;;;1.92;1.30;;;22.80;50.40;;;;;;5000778;28;20065;-55
2023/09/06 00:20:20;;;;;;;2.35;1.35;;;22.80;50.40;;;;;;4999238;28;20073;-55
2023/09/06 00:22:56;;;;;;;1.67;1.27;;;22.90;50.50;;;;;;5000913;28;20058;-55
2023/09/06 00:25:25;;;;;;;1.45;1.35;;;22.80;50.50;;;;;;5001260;28;20057;-47
2023/09/06 00:27:52;;;;;;;3.15;1.60;;;22.80;50.50;;;;;;5002192;28;20061;-45
2023/09/06 00:30:21;;;;;;;1.90;1.35;;;22.80;50.60;;;;;;5004527;28;20410;-44
2023/09/06 00:32:52;;;;;;;2.15;1.40;;;22.70;50.60;;;;;;5004621;28;20061;-43
2023/09/06 00:35:20;;;;;;;1.98;1.38;;;22.70;50.60;;;;;;5002873;28;20406;-44
2023/09/06 00:37:47;;;;;;;1.67;1.35;;;22.70;50.60;;;;;;5004622;28;20056;-43
2023/09/06 00:40:18;;;;;;;2.05;1.30;;;22.70;50.60;;;;;;5003914;28;20527;-45
2023/09/06 00:42:47;;;;;;;2.25;1.27;;;22.60;51.00;;;;;;5004221;28;20061;-50
2023/09/06 00:45:15;;;;;;;2.40;1.65;;;22.60;50.60;;;;;;5004437;28;20050;-43
2023/09/06 00:47:44;;;;;;;2.20;1.55;;;22.60;50.60;;;;;;5004218;28;20061;-41
2023/09/06 00:50:14;;;;;;;1.60;1.33;;;22.60;50.70;;;;;;5003399;28;20054;-43
2023/09/06 00:52:42;;;;;;;4.13;1.50;;;22.60;50.80;;;;;;5004123;28;20058;-46
2023/09/06 00:55:10;;;;;;;3.03;1.70;;;22.50;50.70;;;;;;5003190;28;20054;-42
2023/09/06 00:57:38;;;;;;;3.83;1.70;;;22.50;50.80;;;;;;5004472;28;20065;-54
2023/09/06 01:00:14;;;;;;;2.15;1.38;;;22.50;50.80;;;;;;5003587;28;20058;-44
2023/09/06 01:02:41;;;;;;;4.63;1.63;;;22.50;50.90;;;;;;5002973;28;20056;-48
2023/09/06 01:05:10;;;;;;;2.60;1.30;;;22.40;50.90;;;;;;5002565;28;20058;-46
2023/09/06 01:07:39;;;;;;;2.55;1.80;;;22.40;50.90;;;;;;5004097;28;20065;-42
2023/09/06 01:10:08;;;;;;;2.05;1.55;;;22.40;51.00;;;;;;5003786;28;20050;-53
2023/09/06 01:12:35;;;;;;;2.58;1.48;;;22.40;51.00;;;;;;5005156;28;20053;-43
2023/09/06 01:15:04;;;;;;;5.65;1.73;;;22.30;51.50;;;;;;5003906;28;20774;-44
2023/09/06 01:17:33;;;;;;;2.08;1.65;;;22.30;51.10;;;;;;5002350;28;20053;-46
2023/09/06 01:20:09;;;;;;;1.80;1.40;;;22.30;51.20;;;;;;5002559;28;20067;-45
2023/09/06 01:22:42;;;;;;;3.42;1.75;;;22.30;51.30;;;;;;5003541;28;20410;-49
2023/09/06 01:25:11;;;;;;;1.73;1.60;;;22.30;51.30;;;;;;5003385;28;20053;-44
2023/09/06 01:27:39;;;;;;;3.00;1.80;;;22.20;51.20;;;;;;5003977;28;20133;-42
2023/09/06 01:30:08;;;;;;;2.33;1.83;;;22.20;51.20;;;;;;5002972;28;20068;-48
2023/09/06 01:32:35;;;;;;;2.80;1.60;;;22.20;51.30;;;;;;5003838;28;20058;-42
2023/09/06 01:35:03;;;;;;;3.60;1.83;;;22.10;51.30;;;;;;5001282;28;20064;-45
2023/09/06 01:37:34;;;;;;;1.88;1.52;;;22.10;51.40;;;;;;5003021;28;20058;-43
2023/09/06 01:40:08;;;;;;;3.35;1.58;;;22.10;51.40;;;;;;5003368;28;20452;-47
2023/09/06 01:42:36;;;;;;;2.57;1.50;;;22.10;51.50;;;;;;5004753;28;20058;-44
2023/09/06 01:45:04;;;;;;;3.78;1.60;;;22.10;51.50;;;;;;5002515;28;21035;-42
2023/09/06 01:47:31;;;;;;;3.03;2.00;;;22.00;51.40;;;;;;5003417;28;20054;-49
2023/09/06 01:49:59;;;;;;;2.85;1.52;;;22.00;51.50;;;;;;5001476;28;20066;-50
2023/09/06 01:52:26;;;;;;;2.53;1.95;;;22.00;51.50;;;;;;5002567;28;20056;-46
2023/09/06 01:54:53;;;;;;;3.20;1.75;;;22.00;51.60;;;;;;5003729;28;20056;-46
2023/09/06 01:57:20;;;;;;;1.75;1.52;;;21.90;51.60;;;;;;5002972;28;20057;-43
2023/09/06 01:59:50;;;;;;;3.85;1.92;;;21.90;51.60;;;;;;5002801;28;20068;-43
2023/09/06 02:02:18;;;;;;;4.70;1.65;;;21.90;51.70;;;;;;5002488;28;20510;-47
2023/09/06 02:04:45;;;;;;;2.50;1.55;;;21.90;51.70;;;;;;5001689;28;20050;-55
2023/09/06 02:07:12;;;;;;;2.00;1.67;;;21.80;51.80;;;;;;5002639;28;20502;-54
2023/09/06 02:09:40;;;;;;;2.42;1.80;;;21.80;51.80;;;;;;5003221;28;20057;-54
2023/09/06 02:12:08;;;;;;;2.85;1.75;;;21.80;51.90;;;;;;5002400;28;20058;-55
2023/09/06 02:14:35;;;;;;;2.80;1.88;;;21.70;51.80;;;;;;5002640;28;20054;-55
2023/09/06 02:17:04;;;;;;;3.53;1.80;;;21.70;51.80;;;;;;5003255;28;20060;-53
2023/09/06 02:19:31;;;;;;;2.65;1.45;;;21.70;51.90;;;;;;5001914;28;20053;-54
2023/09/06 02:22:01;;;;;;;1.92;1.55;;;21.70;51.90;;;;;;5002127;28;20073;-54
2023/09/06 02:24:28;;;;;;;2.10;1.33;;;21.70;51.90;;;;;;5001928;28;20057;-54
2023/09/06 02:26:55;;;;;;;3.17;1.52;;;21.60;51.90;;;;;;5001782;28;20057;-55
2023/09/06 02:29:24;;;;;;;4.25;2.22;;;21.60;51.90;;;;;;5002315;28;20046;-55
2023/09/06 02:31:51;;;;;;;2.78;2.10;;;21.60;52.00;;;;;;5002106;28;20403;-55
2023/09/06 02:34:19;;;;;;;3.15;1.70;;;21.60;52.00;;;;;;5001917;28;20069;-55
2023/09/06 02:36:47;;;;;;;3.15;1.80;;;21.60;52.00;;;;;;5001399;28;20077;-55
2023/09/06 02:39:14;;;;;;;2.88;1.90;;;21.50;52.10;;;;;;5002169;28;20053;-55
2023/09/06 02:41:41;;;;;;;2.00;1.75;;;21.50;52.10;;;;;;5001835;28;20081;-55
2023/09/06 02:44:08;;;;;;;3.42;1.70;;;21.50;52.20;;;;;;5001961;28;20054;-54
2023/09/06 02:46:35;;;;;;;5.53;1.70;;;21.50;52.20;;;;;;5002064;28;20053;-55
2023/09/06 02:49:11;;;;;;;6.18;1.92;;;21.50;52.30;;;;;;5002822;28;20058;-55
2023/09/06 02:51:42;;;;;;;2.60;1.80;;;21.40;52.30;;;;;;5000892;28;20054;-54
2023/09/06 02:54:10;;;;;;;3.42;1.60;;;21.40;52.30;;;;;;5001803;28;20046;-55
2023/09/06 02:56:37;;;;;;;1.42;1.23;;;21.40;52.40;;;;;;5001709;28;20053;-54
2023/09/06 02:59:07;;;;;;;3.22;2.00;;;21.40;52.40;;;;;;5001566;28;20061;-55
2023/09/06 03:01:35;;;;;;;2.05;1.60;;;21.40;52.50;;;;;;5001743;28;20058;-54
2023/09/06 03:04:06;;;;;;;3.47;1.73;;;21.40;52.50;;;;;;5002225;28;20422;-55
2023/09/06 03:06:33;;;;;;;2.60;1.80;;;21.30;52.40;;;;;;5000602;28;20056;-52
2023/09/06 03:09:06;;;;;;;1.48;1.38;;;21.30;52.40;;;;;;5001667;28;20072;-51
2023/09/06 03:11:33;;;;;;;2.58;1.75;;;21.30;52.40;;;;;;5001656;28;20060;-55
2023/09/06 03:14:02;;;;;;;2.53;1.50;;;21.30;52.40;;;;;;5001426;28;20403;-55
2023/09/06 03:16:38;;;;;;;2.72;1.65;;;21.20;52.40;;;;;;5001423;28;20058;-43
2023/09/06 03:19:09;;;;;;;2.88;1.83;;;21.20;52.50;;;;;;5002782;28;20058;-43
2023/09/06 03:21:37;;;;;;;3.63;1.77;;;21.20;52.50;;;;;;5000624;28;20061;-45
2023/09/06 03:24:11;;;;;;;3.88;2.10;;;21.20;52.60;;;;;;4972361;28;20401;-45
2023/09/06 03:26:43;;;;;;;2.42;1.65;;;21.10;52.60;;;;;;4961939;28;20200;-43
2023/09/06 03:29:11;;;;;;;2.72;1.70;;;21.10;52.70;;;;;;4944899;28;20054;-48
2023/09/06 03:31:42;;;;;;;2.05;1.52;;;21.10;52.70;;;;;;4962454;28;20055;-45
2023/09/06 03:34:13;;;;;;;2.60;1.70;;;21.10;52.80;;;;;;4961831;28;20063;-44
2023/09/06 03:36:41;;;;;;;2.85;1.75;;;21.00;52.70;;;;;;4960273;28;20519;-43
2023/09/06 03:39:13;;;;;;;2.05;1.50;;;21.00;52.80;;;;;;4962309;28;20499;-44
2023/09/06 03:41:41;;;;;;;3.45;1.70;;;21.00;53.30;;;;;;4962253;28;20415;-42
2023/09/06 03:44:08;;;;;;;2.45;1.67;;;21.00;52.90;;;;;;4962184;28;20431;-46
2023/09/06 03:46:37;;;;;;;4.85;2.08;;;21.00;52.90;;;;;;4962543;28;20051;-53
2023/09/06 03:49:08;;;;;;;3.63;2.45;;;20.90;52.90;;;;;;4963252;28;20135;-45
2023/09/06 03:51:37;;;;;;;3.70;1.88;;;20.90;53.00;;;;;;4960911;28;20510;-44
2023/09/06 03:54:06;;;;;;;2.97;1.95;;;20.90;53.00;;;;;;4962340;28;20061;-43
2023/09/06 03:56:38;;;;;;;2.80;1.75;;;20.90;53.10;;;;;;4962042;28;20406;-48
2023/09/06 03:59:08;;;;;;;2.80;1.92;;;20.90;53.10;;;;;;4962741;28;20058;-47
2023/09/06 04:01:36;;;;;;;2.30;1.70;;;20.80;53.10;;;;;;4963890;28;20059;-43
2023/09/06 04:04:04;;;;;;;2.35;1.60;;;20.80;53.10;;;;;;4966332;28;20063;-43
2023/09/06 04:06:31;;;;;;;3.58;1.98;;;20.80;53.10;;;;;;4963657;28;20062;-46
2023/09/06 04:08:59;;;;;;;2.08;1.60;;;20.70;53.10;;;;;;4965312;28;20054;-43
2023/09/06 04:14:49;;;;;;;4.63;2.00;;;20.70;53.30;;;;;;4965644;28;20058;-43
2023/09/06 04:17:17;;;;;;;2.72;1.95;;;20.70;53.20;;;;;;4963817;28;20058;-52
2023/09/06 04:19:44;;;;;;;2.80;1.73;;;20.70;53.20;;;;;;4964163;28;20065;-46
2023/09/06 04:22:13;;;;;;;3.08;1.73;;;20.60;53.20;;;;;;4964788;28;20062;-44
2023/09/06 04:24:40;;;;;;;2.70;1.80;;;20.60;53.30;;;;;;4962179;28;20051;-42
2023/09/06 04:27:07;;;;;;;2.42;1.80;;;20.60;53.30;;;;;;4964301;28;20062;-56
2023/09/06 04:29:34;;;;;;;2.25;1.70;;;20.50;53.30;;;;;;4965227;28;20050;-55
2023/09/06 04:32:03;;;;;;;1.98;1.60;;;20.50;53.40;;;;;;4964777;28;20081;-55
2023/09/06 04:34:30;;;;;;;2.80;1.83;;;20.50;53.40;;;;;;4965072;28;20059;-56
2023/09/06 04:36:58;;;;;;;3.30;1.98;;;20.50;53.40;;;;;;4965846;28;20066;-55
2023/09/06 04:39:28;;;;;;;2.58;1.85;;;20.40;53.40;;;;;;4965005;28;20054;-54
2023/09/06 04:41:55;;;;;;;2.55;1.67;;;20.40;53.50;;;;;;4964711;28;20499;-55
2023/09/06 04:44:24;;;;;;;2.88;2.13;;;20.40;53.60;;;;;;4964974;28;20062;-55
2023/09/06 04:46:51;;;;;;;2.65;1.88;;;20.40;53.60;;;;;;4964573;28;20078;-55
2023/09/06 04:49:22;;;;;;;2.45;1.80;;;20.40;53.70;;;;;;4965488;28;20054;-52
2023/09/06 04:51:49;;;;;;;2.97;1.77;;;20.30;53.70;;;;;;4963622;28;20061;-55
2023/09/06 04:54:16;;;;;;;4.13;1.90;;;20.30;53.70;;;;;;4965067;28;20054;-55
2023/09/06 04:56:43;;;;;;;4.20;2.08;;;20.30;54.30;;;;;;4965227;28;20057;-55
2023/09/06 04:59:11;;;;;;;2.30;1.63;;;20.20;53.80;;;;;;4963990;28;20538;-55
2023/09/06 05:01:40;;;;;;;4.45;2.20;;;20.20;53.80;;;;;;4964435;28;20058;-55
2023/09/06 05:04:12;;;;;;;2.30;1.85;;;20.20;53.90;;;;;;4965446;28;20062;-51
2023/09/06 05:06:40;;;;;;;2.58;1.65;;;20.20;53.90;;;;;;4963483;28;20050;-55
2023/09/06 05:09:10;;;;;;;3.00;1.92;;;20.20;53.90;;;;;;4964651;28;20439;-52
2023/09/06 05:11:37;;;;;;;2.08;1.70;;;20.20;54.00;;;;;;4965011;28;20055;-55
2023/09/06 05:14:04;;;;;;;2.70;2.25;;;20.20;54.00;;;;;;4964208;28;20051;-55
2023/09/06 05:16:32;;;;;;;2.30;1.80;;;20.20;54.00;;;;;;4965140;28;20050;-50
2023/09/06 05:18:59;;;;;;;3.53;1.88;;;20.10;54.00;;;;;;4964850;28;20518;-54
2023/09/06 05:21:26;;;;;;;4.30;1.80;;;20.10;54.10;;;;;;4963089;28;20054;-54
2023/09/06 05:23:55;;;;;;;2.50;1.88;;;20.10;54.10;;;;;;4964503;28;20055;-56
2023/09/06 05:26:22;;;;;;;4.18;2.13;;;20.10;54.20;;;;;;4963822;28;20620;-55
2023/09/06 05:28:49;;;;;;;12.02;2.72;;;20.00;54.20;;;;;;4963809;28;20527;-56
2023/09/06 05:31:18;;;;;;;5.72;2.22;;;20.00;54.30;;;;;;4964396;28;20050;-56
2023/09/06 05:33:46;;;;;;;2.20;1.90;;;20.00;54.40;;;;;;4963626;28;20423;-55
2023/09/06 05:36:14;;;;;;;4.70;2.10;;;20.00;54.40;;;;;;4962603;28;20484;-44
2023/09/06 05:38:41;;;;;;;2.35;1.55;;;20.00;54.60;;;;;;4963913;28;20586;-44
2023/09/06 05:41:10;;;;;;;3.83;1.90;;;20.00;54.60;;;;;;4963836;28;20051;-46
2023/09/06 05:43:38;;;;;;;2.03;1.70;;;20.00;54.70;;;;;;4964783;28;20518;-50
2023/09/06 05:46:05;;;;;;;2.88;1.80;;;20.00;54.80;;;;;;4964646;28;20046;-44
2023/09/06 05:48:32;;;;;;;4.05;1.83;;;20.00;54.80;;;;;;4963881;28;20055;-45
2023/09/06 05:51:00;;;;;;;3.30;2.30;;;20.00;54.90;;;;;;4961786;28;20518;-45
2023/09/06 05:53:29;;;;;;;3.35;2.05;;;20.00;55.00;;;;;;4964487;28;20809;-44
2023/09/06 05:55:57;;;;;;;3.13;1.90;;;19.90;55.00;;;;;;4963253;28;20059;-55
2023/09/06 05:58:25;;;;;;;2.30;1.90;;;20.00;55.10;;;;;;4964105;28;20419;-56
2023/09/06 06:00:53;;;;;;;2.00;1.65;;;20.00;55.20;;;;;;4963225;28;20055;-56
2023/09/06 06:03:20;;;;;;;4.43;1.90;;;20.00;55.20;;;;;;4963561;28;20058;-55
2023/09/06 06:05:48;;;;;;;4.22;2.10;;;20.00;55.30;;;;;;4960572;28;20065;-54
2023/09/06 06:08:15;;;;;;;3.30;1.98;;;20.10;55.40;;;;;;4963982;28;20414;-54
2023/09/06 06:10:42;;;;;;;3.25;2.05;;;20.10;55.50;;;;;;4962986;28;20054;-55
2023/09/06 06:13:12;;;;;;;3.65;1.90;;;20.10;55.60;;;;;;4964375;28;20435;-56
2023/09/06 06:15:41;;;;;;;4.32;1.90;;;20.10;55.60;;;;;;4963022;28;20055;-55
2023/09/06 06:18:08;;;;;;;2.55;2.03;;;20.20;55.70;;;;;;4963233;28;20058;-54
2023/09/06 06:20:36;;;;;;;3.22;2.00;;;20.20;55.70;;;;;;4962129;28;20491;-55
2023/09/06 06:23:03;;;;;;;2.70;1.90;;;20.20;55.80;;;;;;4962715;28;20507;-55
2023/09/06 06:25:30;;;;;;;3.40;2.08;;;20.20;55.80;;;;;;4961787;28;20057;-54
2023/09/06 06:27:58;;;;;;;3.40;1.95;;;20.30;55.90;;;;;;4963422;28;20065;-54
2023/09/06 06:30:25;;;;;;;6.40;2.33;;;20.30;56.00;;;;;;4962196;28;20392;-56
2023/09/06 06:32:55;;;;;;;3.53;2.38;;;20.30;56.10;;;;;;4963147;28;20059;-55
2023/09/06 06:35:22;;;;;;;2.92;1.98;;;20.30;56.10;;;;;;4961234;28;20055;-53
2023/09/06 06:37:50;;;;;;;4.25;2.38;;;20.30;56.10;;;;;;4962962;28;20065;-55
2023/09/06 06:40:18;;;;;;;3.22;2.20;;;20.40;56.10;;;;;;4963365;28;20510;-55
2023/09/06 06:42:45;;;;;;;3.75;2.20;;;20.40;56.10;;;;;;4962802;28;20062;-56
2023/09/06 06:45:13;;;;;;;4.55;2.05;;;20.40;56.10;;;;;;4962504;28;20062;-55
2023/09/06 06:47:40;;;;;;;3.75;2.30;;;20.50;56.20;;;;;;4962972;28;20050;-44
2023/09/06 06:50:09;;;;;;;6.07;2.20;;;20.50;56.20;;;;;;4961621;28;20051;-53
2023/09/06 06:52:37;;;;;;;2.58;1.90;;;20.50;56.20;;;;;;4964020;28;20089;-45
2023/09/06 06:55:04;;;;;;;3.53;2.35;;;20.60;56.20;;;;;;4963002;28;20061;-45
2023/09/06 06:57:33;;;;;;;3.45;2.20;;;20.60;56.20;;;;;;4961956;28;20054;-44
2023/09/06 07:00:02;;;;;;;3.50;2.22;;;20.60;56.20;;;;;;4962402;28;20088;-43
2023/09/06 07:02:29;;;;;;;5.57;2.70;;;20.70;56.20;;;;;;4962575;28;20054;-45
2023/09/06 07:04:57;;;;;;;3.60;2.00;;;20.70;56.20;;;;;;4961262;28;20088;-53
2023/09/06 07:07:26;;;;;;;3.72;1.92;;;20.80;56.20;;;;;;4962968;28;20055;-45
2023/09/06 07:09:53;;;;;;;2.75;1.90;;;20.80;56.30;;;;;;4962642;28;20423;-43
2023/09/06 07:12:20;;;;;;;3.80;2.28;;;20.80;56.30;;;;;;4962683;28;20061;-43
2023/09/06 07:14:47;;;;;;;3.03;2.17;;;20.80;56.40;;;;;;4961693;28;20507;-45
2023/09/06 07:17:15;;;;;;;3.05;2.13;;;20.90;56.50;;;;;;4963069;28;20055;-44
2023/09/06 07:19:42;;;;;;;6.18;2.22;;;21.00;56.60;;;;;;4961849;28;20073;-47
2023/09/06 07:22:10;;;;;;;3.72;2.10;;;21.00;56.60;;;;;;4961852;28;20055;-52
2023/09/06 07:24:38;;;;;;;4.13;2.50;;;21.00;56.70;;;;;;4962330;28;20051;-49
2023/09/06 07:27:06;;;;;;;4.68;2.70;;;21.10;57.20;;;;;;4962733;28;20411;-45
2023/09/06 07:29:33;;;;;;;4.75;2.33;;;21.10;56.80;;;;;;4962200;28;20058;-44
2023/09/06 07:32:00;;;;;;;5.05;2.22;;;21.20;56.80;;;;;;4961811;28;20059;-44
2023/09/06 07:34:28;;;;;;;3.33;2.13;;;21.20;56.80;;;;;;4962799;28;20066;-46
2023/09/06 07:36:55;;;;;;;2.38;2.17;;;21.30;56.90;;;;;;4963696;28;20054;-50
2023/09/06 07:39:23;;;;;;;2.95;2.10;;;21.30;57.10;;;;;;4966273;28;20506;-47
2023/09/06 07:41:53;;;;;;;2.38;2.00;;;21.40;57.10;;;;;;4966196;28;20051;-46
2023/09/06 07:44:20;;;;;;;4.95;1.85;;;21.40;57.20;;;;;;4965958;28;20070;-47
2023/09/06 07:46:48;;;;;;;2.42;2.10;;;21.50;57.20;;;;;;4966458;28;20078;-45
2023/09/06 07:49:16;;;;;;;7.60;2.65;;;21.50;57.30;;;;;;4965621;28;20066;-44
2023/09/06 07:51:44;;;;;;;3.65;2.53;;;21.60;57.40;;;;;;4964777;28;20067;-44
2023/09/06 07:54:11;;;;;;;3.72;2.63;;;21.60;57.30;;;;;;4966121;28;20051;-55
2023/09/06 07:56:39;;;;;;;3.28;2.40;;;21.70;57.10;;;;;;4965456;28;20047;-45
2023/09/06 07:59:09;;;;;;;5.03;2.67;;;21.70;56.90;;;;;;4965835;28;20059;-52
2023/09/06 08:01:37;;;;;;;7.57;2.75;;;21.80;56.80;;;;;;4964729;28;20067;-47
2023/09/06 08:04:04;;;;;;;4.25;2.50;;;21.80;56.80;;;;;;4965944;28;20054;-45
2023/09/06 08:06:31;;;;;;;3.58;2.33;;;21.90;56.60;;;;;;4964165;28;20043;-46
2023/09/06 08:09:00;;;;;;;6.65;2.67;;;22.00;56.70;;;;;;4966167;28;20456;-44
2023/09/06 08:11:27;;;;;;;3.03;2.30;;;22.00;56.60;;;;;;4966514;28;20522;-43
2023/09/06 08:13:55;;;;;;;2.72;2.25;;;22.10;56.60;;;;;;4966234;28;20055;-46
2023/09/06 08:16:23;;;;;;;3.95;2.50;;;22.10;56.50;;;;;;4965571;28;20516;-54
2023/09/06 08:18:50;;;;;;;3.75;2.35;;;22.20;56.40;;;;;;4963857;28;20057;-45
2023/09/06 08:21:19;;;;;;;6.72;2.60;;;22.30;56.40;;;;;;4964126;28;20054;-44
2023/09/06 08:23:46;;;;;;;3.13;2.50;;;22.40;56.20;;;;;;4964904;28;20647;-45
2023/09/06 08:26:13;;;;;;;3.45;2.65;;;22.40;56.10;;;;;;4964927;28;20055;-44
2023/09/06 08:28:41;;;;;;;3.28;2.40;;;22.50;55.90;;;;;;4966658;28;20066;-50
2023/09/06 08:31:09;;;;;;;5.03;2.78;;;22.50;55.80;;;;;;4964469;28;20061;-46
2023/09/06 08:33:37;;;;;;;3.60;2.38;;;22.60;55.70;;;;;;4965425;28;20050;-49
2023/09/06 08:36:05;;;;;;;5.55;3.22;;;22.60;55.80;;;;;;4964399;28;20487;-43
2023/09/06 08:38:33;;;;;;;4.97;2.83;;;22.70;55.70;;;;;;4965002;28;20055;-49
2023/09/06 08:41:01;;;;;;;3.42;2.75;;;22.80;55.60;;;;;;4964980;28;20061;-46
2023/09/06 08:43:34;;;;;;;5.43;3.15;;;22.80;55.50;;;;;;4964329;28;20081;-45
2023/09/06 08:46:09;;;;;;;3.40;2.65;;;22.90;55.20;;;;;;4964479;28;20066;-43
2023/09/06 08:48:38;;;;;;;3.17;2.75;;;23.00;55.00;;;;;;4963965;28;20397;-45
2023/09/06 08:51:06;;;;;;;5.22;3.05;;;23.00;54.80;;;;;;4964183;28;20067;-42
2023/09/06 08:53:34;;;;;;;5.15;3.40;;;23.10;54.60;;;;;;4964856;28;20054;-45
2023/09/06 08:56:03;;;;;;;4.05;2.72;;;23.10;54.30;;;;;;4964918;28;20054;-45
2023/09/06 08:58:31;;;;;;;4.05;3.05;;;23.20;54.10;;;;;;4965159;28;20057;-47
2023/09/06 09:00:59;;;;;;;7.22;2.90;;;23.20;53.90;;;;;;4964490;28;20081;-43
2023/09/06 09:03:26;;;;;;;3.65;2.85;;;23.30;53.60;;;;;;4964483;28;20062;-48
2023/09/06 09:05:59;;;;;;;4.40;2.80;;;23.40;53.50;;;;;;4961636;28;20630;-44
2023/09/06 09:08:28;;;;;;;4.38;2.80;;;23.40;53.30;;;;;;4964479;28;20055;-44
2023/09/06 09:11:09;;;;;;;3.67;2.90;;;23.40;53.30;;;;;;4965466;28;20495;-46
2023/09/06 09:13:36;;;;;;;3.85;2.67;;;23.50;52.90;;;;;;4964008;28;20066;-50
2023/09/06 09:16:08;;;;;;;3.67;2.45;;;23.60;53.10;;;;;;4964180;28;20063;-43
2023/09/06 09:18:35;;;;;;;5.43;3.05;;;23.60;52.80;;;;;;4964206;28;20051;-42
2023/09/06 09:21:04;;;;;;;3.20;2.80;;;23.70;52.80;;;;;;4963051;28;20061;-44
2023/09/06 09:23:32;;;;;;;4.50;2.78;;;23.80;52.60;;;;;;4964377;28;20061;-44
2023/09/06 09:26:00;;;;;;;3.42;2.80;;;23.80;52.50;;;;;;4964889;28;20058;-45
2023/09/06 09:28:33;;;;;;;9.18;3.08;;;23.80;52.60;;;;;;4963963;28;20055;-44
2023/09/06 09:31:00;;;;;;;3.65;2.55;;;23.90;52.50;;;;;;4963829;28;20054;-43
2023/09/06 09:33:28;;;;;;;5.28;2.80;;;24.00;52.40;;;;;;4964751;28;20391;-45
2023/09/06 09:35:56;;;;;;;5.10;2.83;;;24.00;52.20;;;;;;4963156;28;20070;-46
2023/09/06 09:38:25;;;;;;;6.53;3.10;;;24.10;52.30;;;;;;4963862;28;20054;-50
2023/09/06 09:41:05;;;;;;;6.03;2.75;;;24.10;52.00;;;;;;4965011;28;20059;-45
2023/09/06 09:43:32;;;;;;;5.13;2.83;;;24.20;51.30;;;;;;4964357;28;20065;-43
2023/09/06 09:45:59;;;;;;;5.05;3.33;;;24.20;51.40;;;;;;4963743;28;20422;-43
2023/09/06 09:48:30;;;;;;;3.55;2.75;;;24.30;51.60;;;;;;4963341;28;20443;-43
2023/09/06 09:50:58;;;;;;;4.03;3.00;;;24.30;51.50;;;;;;4962820;28;20065;-42
2023/09/06 09:53:29;;;;;;;3.28;2.80;;;24.40;51.50;;;;;;4963863;28;20054;-45
2023/09/06 09:55:57;;;;;;;4.40;2.80;;;24.40;51.10;;;;;;4964261;28;20514;-43
2023/09/06 09:58:28;;;;;;;4.72;3.00;;;24.50;50.60;;;;;;4963931;28;20055;-43
2023/09/06 10:00:56;;;;;;;3.53;2.90;;;24.50;50.30;;;;;;4963565;28;20495;-53
2023/09/06 10:03:27;;;;;;;4.65;3.03;;;24.50;50.20;;;;;;4963351;28;20062;-44
2023/09/06 10:05:55;;;;;;;8.95;3.10;;;24.60;50.40;;;;;;4961049;28;20063;-45
2023/09/06 10:08:24;;;;;;;4.50;3.20;;;24.60;50.60;;;;;;4963791;28;20054;-54
2023/09/06 10:10:53;;;;;;;6.07;3.08;;;24.70;50.50;;;;;;4963569;28;20058;-45
2023/09/06 10:13:26;;;;;;;4.22;2.90;;;24.70;50.30;;;;;;4962536;28;20062;-47
2023/09/06 10:15:54;;;;;;;6.18;2.95;;;24.80;49.90;;;;;;4963233;28;20063;-49
2023/09/06 10:18:21;;;;;;;3.40;2.60;;;24.80;49.80;;;;;;4963383;28;20058;-43
2023/09/06 10:20:49;;;;;;;3.92;2.50;;;24.90;49.70;;;;;;4961417;28;20055;-42
2023/09/06 10:23:18;;;;;;;4.00;2.80;;;24.90;49.70;;;;;;4963731;28;20059;-42
2023/09/06 10:25:52;;;;;;;6.30;2.70;;;25.00;49.60;;;;;;4963078;28;20495;-42
2023/09/06 10:28:23;;;;;;;3.63;2.78;;;25.00;49.60;;;;;;4963450;28;20422;-45
2023/09/06 10:31:02;;;;;;;3.25;2.65;;;25.10;49.30;;;;;;4962947;28;20062;-45
2023/09/06 10:33:55;;;;;;;3.92;2.47;;;25.20;49.00;;;;;;4963318;28;20404;-43
2023/09/06 10:36:27;;;;;;;5.15;3.33;;;25.20;48.70;;;;;;4961705;28;20059;-45
2023/09/06 10:39:14;;;;;;;4.00;2.97;;;25.30;48.70;;;;;;4944833;28;20051;-42
2023/09/06 10:42:19;;;;;;;3.72;2.58;;;25.30;48.50;;;;;;4962238;28;20058;-42
2023/09/06 10:45:04;;;;;;;;;;;25.40;48.50;;;;;;4963368;28;20462;-51
2023/09/06 10:47:33;;;;;;;6.93;2.85;;;25.50;49.10;;;;;;4963375;28;19922;-47
2023/09/06 10:50:12;;;;;;;4.07;2.78;;;25.50;48.30;;;;;;4962345;28;20063;-44
2023/09/06 10:52:44;;;;;;;4.22;2.80;;;25.60;47.90;;;;;;4963260;28;20419;-43
2023/09/06 10:55:16;;;;;;;3.92;2.63;;;25.60;48.20;;;;;;4962628;28;20054;-44
2023/09/06 10:58:06;;;;;;;7.18;3.30;;;25.60;48.40;;;;;;4962975;28;20431;-51
2023/09/06 11:00:34;;;;;;;4.47;2.95;;;25.70;48.10;;;;;;4962791;28;20057;-44
2023/09/06 11:03:21;;;;;;;5.68;3.08;;;25.70;48.20;;;;;;4962989;28;20055;-43
2023/09/06 11:05:56;;;;;;;4.20;2.95;;;25.80;47.60;;;;;;4960740;28;20066;-43
2023/09/06 11:08:30;;;;;;;4.47;3.13;;;25.80;47.00;;;;;;4963458;28;20047;-44
2023/09/06 11:11:01;;;;;;;;;;;25.90;46.90;;;;;;4962667;28;20214;-43
2023/09/06 11:13:32;;;;;;;4.72;2.97;;;25.90;47.40;;;;;;4961768;28;19933;-48
2023/09/06 11:16:00;;;;;;;3.70;2.72;;;26.00;46.60;;;;;;4961933;28;20415;-44
2023/09/06 11:18:30;;;;;;;5.95;3.55;;;26.00;46.40;;;;;;4962502;28;20085;-43
2023/09/06 11:20:59;;;;;;;4.53;3.00;;;26.00;46.50;;;;;;4960719;28;20062;-43
2023/09/06 11:23:27;;;;;;;4.78;3.28;;;26.00;45.80;;;;;;4962756;28;20054;-43
2023/09/06 11:26:00;;;;;;;3.25;2.78;;;26.00;45.50;;;;;;4962168;28;20499;-55
2023/09/06 11:28:33;;;;;;;5.57;3.47;;;26.10;45.60;;;;;;4962214;28;20054;-54
2023/09/06 11:31:04;;;;;;;5.35;3.55;;;26.10;45.30;;;;;;4961493;28;20446;-56
2023/09/06 11:33:33;;;;;;;4.00;3.03;;;26.10;45.00;;;;;;4962712;28;20062;-56
2023/09/06 11:36:03;;;;;;;6.60;3.08;;;26.20;45.10;;;;;;4961118;28;20063;-56
2023/09/06 11:38:35;;;;;;;4.38;2.90;;;26.20;45.00;;;;;;4963387;28;20055;-56
2023/09/06 11:41:07;;;;;;;4.03;3.10;;;26.20;45.10;;;;;;4961892;28;20055;-55
2023/09/06 11:43:35;;;;;;;5.00;3.08;;;26.20;45.40;;;;;;4962527;28;20062;-55
2023/09/06 11:46:05;;;;;;;4.03;3.10;;;26.30;45.40;;;;;;4961610;28;20063;-57
2023/09/06 11:48:35;;;;;;;6.78;3.10;;;26.30;44.80;;;;;;4962708;28;20502;-59
2023/09/06 11:51:08;;;;;;;5.80;3.20;;;26.30;44.70;;;;;;4960929;28;20081;-58
2023/09/06 11:53:40;;;;;;;4.90;3.17;;;26.30;44.60;;;;;;4963567;28;20081;-59
2023/09/06 11:56:11;;;;;;;5.57;3.10;;;26.40;44.30;;;;;;4962620;28;20074;-56
2023/09/06 11:58:45;;;;;;;5.85;3.22;;;26.40;44.20;;;;;;4962565;28;20086;-53
2023/09/06 12:01:19;;;;;;;5.53;3.38;;;26.40;43.80;;;;;;4961899;28;20055;-53
2023/09/06 12:03:48;;;;;;;4.47;3.45;;;26.40;43.80;;;;;;4961430;28;20059;-55
2023/09/06 12:06:16;;;;;;;4.32;3.35;;;26.50;43.70;;;;;;4960568;28;20392;-58
2023/09/06 12:08:43;;;;;;;5.47;3.33;;;26.50;43.80;;;;;;4962756;28;20633;-58
2023/09/06 12:11:17;;;;;;;5.07;3.38;;;26.50;43.60;;;;;;4961741;28;20065;-57
2023/09/06 12:13:44;;;;;;;3.30;2.95;;;26.60;43.60;;;;;;4961573;28;20058;-57
2023/09/06 12:16:12;;;;;;;5.78;3.30;;;26.60;43.50;;;;;;4961906;28;20089;-56
2023/09/06 12:18:40;;;;;;;4.10;3.25;;;26.60;43.30;;;;;;4961624;28;20054;-56
2023/09/06 12:21:08;;;;;;;4.80;3.30;;;26.60;43.30;;;;;;4960562;28;20782;-55
2023/09/06 12:23:37;;;;;;;4.40;3.28;;;26.70;43.50;;;;;;4965915;28;20082;-58
2023/09/06 12:26:04;;;;;;;4.20;3.20;;;26.70;43.40;;;;;;4965284;28;20065;-56
2023/09/06 12:28:32;;;;;;;4.18;2.45;;;26.80;43.50;;;;;;4962640;28;20487;-52
2023/09/06 12:31:02;;;;;;;5.10;3.45;;;26.80;43.10;;;;;;4965013;28;20059;-55
2023/09/06 12:33:30;;;;;;;3.88;3.03;;;26.80;42.70;;;;;;4965063;28;20054;-56
2023/09/06 12:36:00;;;;;;;4.75;3.55;;;26.80;42.60;;;;;;4963991;28;20067;-49
2023/09/06 12:38:28;;;;;;;4.00;3.28;;;26.90;42.70;;;;;;4965844;28;20066;-57
2023/09/06 12:40:56;;;;;;;3.78;2.83;;;26.90;42.80;;;;;;4965823;28;20051;-57
2023/09/06 12:43:24;;;;;;;5.90;3.40;;;26.90;42.80;;;;;;4964560;28;20055;-55
2023/09/06 12:45:53;;;;;;;4.32;3.20;;;26.90;42.90;;;;;;4964697;28;21061;-55
2023/09/06 12:48:21;;;;;;;6.18;3.13;;;26.90;42.70;;;;;;4947373;28;20515;-54
2023/09/06 12:50:49;;;;;;;4.45;3.47;;;27.00;42.70;;;;;;4964482;28;20062;-56
2023/09/06 12:53:17;;;;;;;3.28;2.70;;;27.00;42.60;;;;;;4964224;28;20062;-56
2023/09/06 12:55:46;;;;;;;4.93;3.20;;;27.10;42.50;;;;;;4964264;28;20055;-57
2023/09/06 12:58:14;;;;;;;5.47;3.30;;;27.10;42.90;;;;;;4964609;28;20055;-58
2023/09/06 13:00:42;;;;;;;3.40;2.90;;;27.10;42.80;;;;;;4964691;28;20047;-55